Time;durP1;ratioP1;P1;durP2;ratioP2;P2;SDS_P1;SDS_P2;PMS_P1;PMS_P2;Temp;Humidity;BMP_temperature;BMP_pressure;BME280_temperature;BME280_humidity;BME280_pressure;Samples;Min_cycle;Max_cycle;Signal;HPM_P1;HPM_P2
2023/06/28 00:02:24;;;;;;;1.95;1.45;;;17.70;73.30;;;;;;5009872;28;20201;-62
2023/06/28 00:04:52;;;;;;;1.52;1.42;;;17.70;73.90;;;;;;5005588;28;20263;-62
2023/06/28 00:07:19;;;;;;;3.28;1.50;;;17.60;75.10;;;;;;5004143;28;20188;-63
2023/06/28 00:09:47;;;;;;;2.50;1.70;;;17.60;75.30;;;;;;4995727;28;20193;-61
2023/06/28 00:12:14;;;;;;;2.72;1.50;;;17.60;75.40;;;;;;5014281;28;20228;-60
2023/06/28 00:14:41;;;;;;;2.75;1.27;;;17.50;76.20;;;;;;4991563;28;20205;-61
2023/06/28 00:17:08;;;;;;;5.35;1.20;;;17.40;77.00;;;;;;5008597;28;20255;-60
2023/06/28 00:19:34;;;;;;;2.08;1.40;;;17.40;76.70;;;;;;5012644;28;20246;-61
2023/06/28 00:22:02;;;;;;;2.33;1.30;;;17.30;78.10;;;;;;5018283;28;20308;-63
2023/06/28 00:24:28;;;;;;;2.45;1.70;;;17.30;76.80;;;;;;5003477;28;20201;-63
2023/06/28 00:26:56;;;;;;;5.45;1.95;;;17.20;77.60;;;;;;5010649;28;20215;-62
2023/06/28 00:29:23;;;;;;;2.53;1.50;;;17.20;80.30;;;;;;5013646;28;20205;-62
2023/06/28 00:31:50;;;;;;;2.13;1.67;;;17.10;79.30;;;;;;5015851;28;20544;-62
2023/06/28 00:34:17;;;;;;;1.63;1.35;;;16.90;79.20;;;;;;5018155;28;20196;-63
2023/06/28 00:36:44;;;;;;;3.15;1.55;;;16.90;80.50;;;;;;5012914;28;20553;-63
2023/06/28 00:39:11;;;;;;;2.90;1.50;;;16.90;82.60;;;;;;5009020;28;20210;-66
2023/06/28 00:41:38;;;;;;;2.00;1.43;;;16.40;83.00;;;;;;5017673;28;20247;-65
2023/06/28 00:44:06;;;;;;;3.93;1.60;;;16.10;83.60;;;;;;5008564;28;20676;-65
2023/06/28 00:46:35;;;;;;;3.43;1.53;;;15.70;97.50;;;;;;4981275;28;20197;-65
2023/06/28 00:49:02;;;;;;;6.93;2.37;;;15.40;89.00;;;;;;5010424;28;20211;-65
2023/06/28 00:51:31;;;;;;;2.93;1.77;;;15.20;92.00;;;;;;4999055;28;20204;-69
2023/06/28 00:53:59;;;;;;;1.73;1.50;;;15.20;91.90;;;;;;5013080;28;20201;-65
2023/06/28 00:56:26;;;;;;;2.87;1.53;;;15.50;92.00;;;;;;5007608;28;20561;-67
2023/06/28 00:58:53;;;;;;;3.67;1.23;;;15.70;92.00;;;;;;5016664;28;20259;-63
2023/06/28 01:01:21;;;;;;;2.63;1.73;;;15.70;92.00;;;;;;5026280;28;20192;-75
2023/06/28 01:03:50;;;;;;;4.57;1.43;;;15.80;92.20;;;;;;5003242;28;20237;-74
2023/06/28 01:06:18;;;;;;;7.23;1.40;;;15.80;92.30;;;;;;5016378;28;20200;-75
2023/06/28 01:08:45;;;;;;;7.27;1.60;;;16.00;92.40;;;;;;4993959;28;20550;-74
2023/06/28 01:11:13;;;;;;;2.90;1.53;;;16.10;93.10;;;;;;5006607;28;20291;-74
2023/06/28 01:13:42;;;;;;;2.57;1.60;;;16.20;91.80;;;;;;5002449;28;20209;-73
2023/06/28 01:16:08;;;;;;;2.20;1.40;;;16.20;91.90;;;;;;5005839;28;20193;-72
2023/06/28 01:18:36;;;;;;;2.60;1.70;;;16.20;91.40;;;;;;5012968;28;20201;-72
2023/06/28 01:21:07;;;;;;;2.77;1.40;;;16.10;92.10;;;;;;5005522;28;20193;-72
2023/06/28 01:23:35;;;;;;;3.80;1.37;;;16.00;92.10;;;;;;5006321;28;20209;-72
2023/06/28 01:26:02;;;;;;;4.67;1.60;;;16.00;92.60;;;;;;5006994;28;20617;-72
2023/06/28 01:28:30;;;;;;;2.30;1.60;;;16.10;92.00;;;;;;5022585;28;20295;-72
2023/06/28 01:31:03;;;;;;;2.00;1.80;;;16.20;92.70;;;;;;5015194;28;20686;-72
2023/06/28 01:33:32;;;;;;;3.60;1.83;;;16.20;92.30;;;;;;5010748;28;20232;-72
2023/06/28 01:36:00;;;;;;;3.30;1.77;;;16.20;92.50;;;;;;5020064;28;20198;-72
2023/06/28 01:38:28;;;;;;;2.00;1.80;;;16.30;92.70;;;;;;5013455;28;20212;-72
2023/06/28 01:40:56;;;;;;;3.03;1.60;;;16.20;92.50;;;;;;5018692;28;20200;-72
2023/06/28 01:43:23;;;;;;;3.57;1.70;;;16.20;93.00;;;;;;5015263;28;20671;-72
2023/06/28 01:45:50;;;;;;;2.30;1.53;;;16.10;93.20;;;;;;5020976;28;20192;-71
2023/06/28 01:48:18;;;;;;;2.43;1.57;;;16.00;93.30;;;;;;5020463;28;20205;-75
2023/06/28 01:50:45;;;;;;;5.50;1.70;;;15.80;94.20;;;;;;5020738;28;20626;-73
2023/06/28 01:53:12;;;;;;;4.00;1.67;;;15.50;99.10;;;;;;5014609;28;20200;-73
2023/06/28 01:55:39;;;;;;;5.30;1.77;;;15.20;95.70;;;;;;5011203;28;20226;-74
2023/06/28 01:58:06;;;;;;;3.40;1.93;;;14.90;98.30;;;;;;5010310;28;20205;-73
2023/06/28 02:00:33;;;;;;;4.87;2.10;;;14.70;98.90;;;;;;5008852;28;20200;-73
2023/06/28 02:03:00;;;;;;;5.47;1.83;;;14.50;99.90;;;;;;5013267;28;20208;-72
2023/06/28 02:05:28;;;;;;;4.43;1.93;;;14.40;99.90;;;;;;5007220;28;20614;-73
2023/06/28 02:07:54;;;;;;;2.90;2.10;;;14.30;99.90;;;;;;5007421;28;20715;-73
2023/06/28 02:10:23;;;;;;;6.30;2.30;;;14.30;99.90;;;;;;5009796;28;20271;-73
2023/06/28 02:12:51;;;;;;;6.00;2.03;;;14.20;99.90;;;;;;4994571;28;20297;-73
2023/06/28 02:15:18;;;;;;;2.73;2.37;;;14.40;99.90;;;;;;5020597;28;20719;-73
2023/06/28 02:17:47;;;;;;;2.73;1.57;;;14.40;99.90;;;;;;5008053;28;21293;-73
2023/06/28 02:20:14;;;;;;;2.20;1.97;;;14.50;99.90;;;;;;5013677;28;20255;-72
2023/06/28 02:22:42;;;;;;;2.20;1.90;;;14.60;99.90;;;;;;5012876;28;20192;-73
2023/06/28 02:25:09;;;;;;;2.10;1.80;;;14.80;99.90;;;;;;5011680;28;20193;-73
2023/06/28 02:27:36;;;;;;;2.90;1.80;;;14.80;99.90;;;;;;5008871;28;20195;-73
2023/06/28 02:30:03;;;;;;;8.17;3.57;;;14.70;99.90;;;;;;5032304;28;20681;-73
2023/06/28 02:32:30;;;;;;;5.40;3.60;;;14.80;99.90;;;;;;5007059;28;20603;-72
2023/06/28 02:34:57;;;;;;;4.50;1.80;;;14.80;99.90;;;;;;5006880;28;20673;-73
2023/06/28 02:37:25;;;;;;;8.40;3.27;;;14.60;99.90;;;;;;5008293;28;20197;-71
2023/06/28 02:39:52;;;;;;;3.47;2.17;;;14.60;99.90;;;;;;5007222;28;20701;-71
2023/06/28 02:42:19;;;;;;;9.17;4.83;;;14.50;99.90;;;;;;5016783;28;20196;-71
2023/06/28 02:44:46;;;;;;;2.93;2.53;;;14.70;99.90;;;;;;5009098;28;20211;-71
2023/06/28 02:47:13;;;;;;;6.43;2.40;;;14.60;99.90;;;;;;5009217;28;20205;-71
2023/06/28 02:49:41;;;;;;;3.87;2.27;;;14.40;99.90;;;;;;5013260;28;20188;-71
2023/06/28 02:52:08;;;;;;;3.37;2.17;;;13.90;99.90;;;;;;5013771;28;20558;-64
2023/06/28 02:54:35;;;;;;;7.17;2.20;;;13.80;99.90;;;;;;5012436;28;20188;-64
2023/06/28 02:57:08;;;;;;;2.70;2.00;;;13.80;99.90;;;;;;5016959;28;20257;-71
2023/06/28 02:59:50;;;;;;;4.80;2.07;;;13.90;99.90;;;;;;5026434;28;20222;-71
2023/06/28 03:02:17;;;;;;;2.50;2.07;;;13.80;99.90;;;;;;5010044;28;20212;-69
2023/06/28 03:04:44;;;;;;;2.83;2.10;;;14.00;99.90;;;;;;5008899;28;20247;-69
2023/06/28 03:07:13;;;;;;;5.13;2.17;;;14.10;99.90;;;;;;5012441;28;20835;-69
2023/06/28 03:09:41;;;;;;;2.13;1.90;;;14.30;99.90;;;;;;5021987;28;20194;-68
2023/06/28 03:12:09;;;;;;;3.30;2.30;;;14.50;99.90;;;;;;5012470;28;20254;-68
2023/06/28 03:14:36;;;;;;;4.13;2.13;;;14.80;99.90;;;;;;5006351;28;20193;-68
2023/06/28 03:17:03;;;;;;;3.60;2.03;;;14.80;99.90;;;;;;5017923;28;20530;-69
2023/06/28 03:19:30;;;;;;;5.97;2.43;;;14.80;99.90;;;;;;5012918;28;20566;-68
2023/06/28 03:21:57;;;;;;;4.00;1.80;;;14.90;99.90;;;;;;5007985;28;20204;-68
2023/06/28 03:24:25;;;;;;;5.90;1.80;;;14.90;99.90;;;;;;5014746;28;20239;-71
2023/06/28 03:26:52;;;;;;;4.63;1.80;;;15.00;99.90;;;;;;5011415;28;20665;-71
2023/06/28 03:29:20;;;;;;;3.50;2.00;;;15.00;99.90;;;;;;5006612;28;20216;-71
2023/06/28 03:31:47;;;;;;;3.40;2.30;;;15.00;99.90;;;;;;5007391;28;20216;-67
2023/06/28 03:34:16;;;;;;;6.10;2.00;;;15.00;99.90;;;;;;5014466;28;20188;-63
2023/06/28 03:36:44;;;;;;;2.73;2.20;;;14.80;99.90;;;;;;5005664;28;20282;-63
2023/06/28 03:39:29;;;;;;;3.53;2.20;;;14.70;99.90;;;;;;4993880;28;20200;-70
2023/06/28 03:41:56;;;;;;;2.13;1.90;;;14.60;99.90;;;;;;5002249;28;20200;-70
2023/06/28 03:44:23;;;;;;;4.37;2.17;;;14.60;99.90;;;;;;5008615;28;20193;-70
2023/06/28 03:46:49;;;;;;;3.43;2.20;;;14.70;99.90;;;;;;5013208;28;20197;-70
2023/06/28 03:49:19;;;;;;;4.70;2.53;;;14.60;99.90;;;;;;5012266;28;20251;-71
2023/06/28 03:51:46;;;;;;;2.70;2.10;;;14.60;99.90;;;;;;5004915;28;20299;-70
2023/06/28 03:54:13;;;;;;;8.87;2.37;;;14.60;99.90;;;;;;5004496;28;20573;-69
2023/06/28 03:56:42;;;;;;;5.57;2.20;;;14.70;99.90;;;;;;5005506;28;21268;-72
2023/06/28 03:59:09;;;;;;;6.13;2.77;;;14.60;99.90;;;;;;5007696;28;20204;-71
2023/06/28 04:01:36;;;;;;;3.30;2.03;;;14.30;99.90;;;;;;5012324;28;20868;-71
2023/06/28 04:04:03;;;;;;;2.50;2.30;;;14.30;99.90;;;;;;5008297;28;20234;-68
2023/06/28 04:06:30;;;;;;;10.30;2.23;;;14.30;99.90;;;;;;5009651;28;20745;-75
2023/06/28 04:08:57;;;;;;;5.03;2.20;;;14.60;99.90;;;;;;5038769;28;20216;-74
2023/06/28 04:11:24;;;;;;;5.87;2.73;;;14.00;99.90;;;;;;5019998;28;20267;-74
2023/06/28 04:13:51;;;;;;;4.83;2.70;;;14.00;99.90;;;;;;5014812;28;20201;-69
2023/06/28 04:16:18;;;;;;;3.97;2.57;;;13.90;99.90;;;;;;5017247;28;20276;-74
2023/06/28 04:18:45;;;;;;;3.97;2.17;;;13.90;99.90;;;;;;5021071;28;20960;-77
2023/06/28 04:21:12;;;;;;;4.60;2.53;;;14.10;99.90;;;;;;5021715;28;20581;-71
2023/06/28 04:23:39;;;;;;;3.73;2.30;;;14.30;99.90;;;;;;5015380;28;20205;-71
2023/06/28 04:26:06;;;;;;;6.97;2.60;;;14.30;99.90;;;;;;5016480;28;20657;-72
2023/06/28 04:28:33;;;;;;;3.77;2.67;;;14.30;99.90;;;;;;5025864;28;20248;-70
2023/06/28 04:31:00;;;;;;;3.30;2.30;;;14.50;99.90;;;;;;5014852;28;20187;-70
2023/06/28 04:33:29;;;;;;;5.83;2.50;;;14.60;99.90;;;;;;5020664;28;20207;-70
2023/06/28 04:35:57;;;;;;;7.80;2.80;;;14.80;99.90;;;;;;5018317;28;20650;-69
2023/06/28 04:38:24;;;;;;;4.47;2.50;;;14.80;99.90;;;;;;5016682;28;20189;-69
2023/06/28 04:40:51;;;;;;;5.73;2.43;;;14.90;99.90;;;;;;5020443;28;20243;-69
2023/06/28 04:43:20;;;;;;;6.77;2.30;;;14.90;99.90;;;;;;5014403;28;20545;-68
2023/06/28 04:45:48;;;;;;;3.87;2.17;;;15.00;99.90;;;;;;5015354;28;20201;-71
2023/06/28 04:48:15;;;;;;;3.93;2.30;;;14.80;99.90;;;;;;5017718;28;20196;-70
2023/06/28 04:50:47;;;;;;;6.43;2.47;;;14.70;99.90;;;;;;5008627;28;20197;-71
2023/06/28 04:53:14;;;;;;;3.40;2.10;;;14.80;99.90;;;;;;5012964;28;20217;-72
2023/06/28 04:55:43;;;;;;;2.97;2.53;;;14.90;99.90;;;;;;5013933;28;20192;-70
2023/06/28 04:58:10;;;;;;;2.73;2.20;;;14.80;99.90;;;;;;5015242;28;20199;-70
2023/06/28 05:00:39;;;;;;;5.57;2.70;;;15.00;99.90;;;;;;5009781;28;20256;-71
2023/06/28 05:03:06;;;;;;;8.37;2.80;;;15.10;99.90;;;;;;5020125;28;20188;-70
2023/06/28 05:05:33;;;;;;;5.03;2.73;;;15.20;99.90;;;;;;5009648;28;20201;-71
2023/06/28 05:08:00;;;;;;;6.10;2.63;;;15.00;99.90;;;;;;5014574;28;20200;-71
2023/06/28 05:10:27;;;;;;;6.70;2.63;;;15.20;99.90;;;;;;5017798;28;20208;-71
2023/06/28 05:12:54;;;;;;;4.37;2.83;;;15.30;99.90;;;;;;5019214;28;20216;-71
2023/06/28 05:15:21;;;;;;;2.83;2.03;;;15.40;99.90;;;;;;5010007;28;20229;-71
2023/06/28 05:17:48;;;;;;;3.00;2.03;;;15.60;99.90;;;;;;5009867;28;20193;-71
2023/06/28 05:20:15;;;;;;;3.97;2.67;;;15.80;99.90;;;;;;5014326;28;20213;-71
2023/06/28 05:22:49;;;;;;;5.20;2.20;;;15.90;99.90;;;;;;5010212;28;20660;-71
2023/06/28 05:25:19;;;;;;;4.63;2.50;;;16.00;99.90;;;;;;5009135;28;20618;-71
2023/06/28 05:27:45;;;;;;;3.20;2.20;;;16.10;99.90;;;;;;5013528;28;20205;-71
2023/06/28 05:30:12;;;;;;;2.47;2.20;;;16.20;99.90;;;;;;5015911;28;20201;-71
2023/06/28 05:32:39;;;;;;;8.43;2.83;;;16.10;99.90;;;;;;5019584;28;20774;-71
2023/06/28 05:35:07;;;;;;;5.80;2.97;;;16.00;99.90;;;;;;5011054;28;20639;-71
2023/06/28 05:37:34;;;;;;;3.93;2.40;;;15.80;99.90;;;;;;5014151;28;20744;-71
2023/06/28 05:40:01;;;;;;;4.40;2.20;;;16.00;99.90;;;;;;5015142;28;20663;-71
2023/06/28 05:42:27;;;;;;;5.50;2.77;;;15.90;99.90;;;;;;5010373;28;20205;-71
2023/06/28 05:44:54;;;;;;;6.93;2.60;;;15.80;99.90;;;;;;5013682;28;20197;-71
2023/06/28 05:47:21;;;;;;;5.43;2.60;;;16.00;99.90;;;;;;5017098;28;20193;-71
2023/06/28 05:49:49;;;;;;;11.85;3.92;;;16.40;99.90;;;;;;5019702;28;20200;-71
2023/06/28 05:52:16;;;;;;;5.65;2.47;;;16.80;99.90;;;;;;5015814;28;20208;-70
2023/06/28 05:54:43;;;;;;;6.57;2.38;;;17.10;99.90;;;;;;5010552;28;20201;-71
2023/06/28 05:57:10;;;;;;;4.35;2.35;;;17.60;99.90;;;;;;5018488;28;20304;-71
2023/06/28 05:59:37;;;;;;;7.32;3.70;;;17.40;99.90;;;;;;5010123;28;20184;-71
2023/06/28 06:02:04;;;;;;;2.42;1.98;;;17.90;99.90;;;;;;4990572;28;20193;-71
2023/06/28 06:04:31;;;;;;;8.13;2.72;;;18.20;99.90;;;;;;5019484;28;20712;-70
2023/06/28 06:06:58;;;;;;;8.07;2.13;;;18.00;99.90;;;;;;5021215;28;20247;-71
2023/06/28 06:09:28;;;;;;;4.13;2.25;;;17.70;99.90;;;;;;5013169;28;20197;-70
2023/06/28 06:11:55;;;;;;;4.38;2.45;;;17.80;99.90;;;;;;5000436;28;20628;-71
2023/06/28 06:14:23;;;;;;;2.92;2.30;;;18.30;99.90;;;;;;5007327;28;20793;-70
2023/06/28 06:16:50;;;;;;;4.22;2.10;;;18.30;99.90;;;;;;5009462;28;20193;-71
2023/06/28 06:19:17;;;;;;;4.65;2.20;;;18.30;99.90;;;;;;5009375;28;20193;-70
2023/06/28 06:21:44;;;;;;;6.90;2.38;;;18.30;99.90;;;;;;5014276;28;20189;-70
2023/06/28 06:24:11;;;;;;;3.78;2.50;;;18.30;99.90;;;;;;5013469;28;20284;-70
2023/06/28 06:26:38;;;;;;;6.63;2.20;;;18.20;99.90;;;;;;5010227;28;20547;-71
2023/06/28 06:29:04;;;;;;;4.45;2.08;;;18.30;99.90;;;;;;5007838;28;20221;-71
2023/06/28 06:31:31;;;;;;;3.67;2.00;;;18.40;99.90;;;;;;5017063;28;20196;-69
2023/06/28 06:34:01;;;;;;;3.97;2.15;;;18.70;99.90;;;;;;5009774;28;20732;-71
2023/06/28 06:36:28;;;;;;;3.70;2.42;;;18.80;99.90;;;;;;5006625;28;20228;-71
2023/06/28 06:38:59;;;;;;;5.57;2.17;;;19.50;99.90;;;;;;5011572;28;20251;-71
2023/06/28 06:41:26;;;;;;;10.27;2.63;;;19.00;99.90;;;;;;5010914;28;20529;-71
2023/06/28 06:43:53;;;;;;;3.30;2.58;;;18.40;99.90;;;;;;5011699;28;20288;-71
2023/06/28 06:46:20;;;;;;;5.60;2.00;;;19.20;99.90;;;;;;5006860;28;20201;-71
2023/06/28 06:48:48;;;;;;;5.70;2.40;;;19.80;99.90;;;;;;5007961;28;20776;-71
2023/06/28 06:51:15;;;;;;;3.95;2.50;;;20.20;99.90;;;;;;5013059;28;20200;-71
2023/06/28 06:53:42;;;;;;;4.85;2.45;;;19.70;99.90;;;;;;5004720;28;20198;-71
2023/06/28 06:56:10;;;;;;;4.47;1.90;;;19.80;99.90;;;;;;5005146;28;20197;-71
2023/06/28 06:58:37;;;;;;;3.95;2.00;;;19.70;99.90;;;;;;5017739;28;20254;-71
2023/06/28 07:01:04;;;;;;;4.85;2.50;;;19.40;99.90;;;;;;5006385;28;20271;-71
2023/06/28 07:03:31;;;;;;;6.40;2.72;;;19.00;99.90;;;;;;5006632;28;20648;-71
2023/06/28 07:05:59;;;;;;;4.20;1.90;;;18.80;99.90;;;;;;5011468;28;20211;-71
2023/06/28 07:08:26;;;;;;;8.32;2.25;;;19.00;99.90;;;;;;5015361;28;20734;-71
2023/06/28 07:10:53;;;;;;;5.30;2.00;;;19.30;99.90;;;;;;5013354;28;20423;-71
2023/06/28 07:13:21;;;;;;;4.70;2.10;;;19.50;99.90;;;;;;5006785;28;20642;-71
2023/06/28 07:15:48;;;;;;;3.33;2.03;;;19.60;99.90;;;;;;5004911;28;20193;-72
2023/06/28 07:18:15;;;;;;;4.72;2.05;;;19.70;99.90;;;;;;5020188;28;20698;-71
2023/06/28 07:20:42;;;;;;;5.28;2.40;;;19.50;99.90;;;;;;5004539;28;20189;-71
2023/06/28 07:23:09;;;;;;;6.88;2.40;;;19.80;99.90;;;;;;5006929;28;20197;-71
2023/06/28 07:25:36;;;;;;;7.50;2.58;;;19.70;99.90;;;;;;5010141;28;20197;-71
2023/06/28 07:28:03;;;;;;;5.03;1.98;;;19.90;99.90;;;;;;5006287;28;20635;-71
2023/06/28 07:30:51;;;;;;;7.22;2.65;;;20.10;99.80;;;;;;5009545;28;20690;-71
2023/06/28 07:33:18;;;;;;;3.38;1.83;;;20.00;99.40;;;;;;5007372;28;20213;-71
2023/06/28 07:35:45;;;;;;;5.60;2.05;;;20.00;99.60;;;;;;5007667;28;20193;-71
2023/06/28 07:38:12;;;;;;;5.13;1.70;;;20.30;99.00;;;;;;5009095;28;20203;-71
2023/06/28 07:40:39;;;;;;;3.38;1.60;;;20.60;98.60;;;;;;5013908;28;20222;-71
2023/06/28 07:43:06;;;;;;;4.25;1.98;;;20.90;99.10;;;;;;5013424;28;20227;-72
2023/06/28 07:45:33;;;;;;;9.52;2.40;;;21.00;97.90;;;;;;5014414;28;20193;-71
2023/06/28 07:48:00;;;;;;;3.10;1.88;;;21.70;97.10;;;;;;5020495;28;20203;-71
2023/06/28 07:50:27;;;;;;;7.63;1.88;;;21.70;96.70;;;;;;5020084;28;20196;-71
2023/06/28 07:52:54;;;;;;;3.83;1.58;;;21.50;96.50;;;;;;5013047;28;20692;-71
2023/06/28 07:55:21;;;;;;;4.35;1.80;;;22.70;97.50;;;;;;5009997;28;20255;-72
2023/06/28 07:57:48;;;;;;;4.13;1.77;;;23.00;94.00;;;;;;5005651;28;20204;-73
2023/06/28 08:00:16;;;;;;;6.38;1.83;;;23.80;95.10;;;;;;5011070;28;20189;-72
2023/06/28 08:02:43;;;;;;;3.15;2.00;;;23.00;93.90;;;;;;5014467;28;20207;-71
2023/06/28 08:05:10;;;;;;;6.50;2.63;;;22.60;94.00;;;;;;5021210;28;20240;-71
2023/06/28 08:07:37;;;;;;;3.13;1.90;;;22.40;92.90;;;;;;5015049;28;20197;-71
2023/06/28 08:10:04;;;;;;;2.90;1.60;;;22.60;94.90;;;;;;5016160;28;20196;-72
2023/06/28 08:12:31;;;;;;;4.55;1.80;;;23.50;93.50;;;;;;5011368;28;20798;-71
2023/06/28 08:14:58;;;;;;;4.15;1.77;;;23.80;92.50;;;;;;5011420;28;20192;-72
2023/06/28 08:17:26;;;;;;;3.97;1.60;;;23.90;93.50;;;;;;5004004;28;20193;-72
2023/06/28 08:19:56;;;;;;;4.75;1.50;;;24.50;93.10;;;;;;5016876;28;20199;-72
2023/06/28 08:22:24;;;;;;;3.83;1.20;;;25.20;92.20;;;;;;5005712;28;20213;-73
2023/06/28 08:24:51;;;;;;;3.13;1.65;;;25.40;91.50;;;;;;5008105;28;20623;-71
2023/06/28 08:27:18;;;;;;;5.55;2.08;;;25.30;90.50;;;;;;5011994;28;20258;-72
2023/06/28 08:29:45;;;;;;;5.75;2.00;;;24.50;86.40;;;;;;5014222;28;20652;-72
2023/06/28 08:32:12;;;;;;;3.33;1.50;;;23.90;86.70;;;;;;5016434;28;20221;-71
2023/06/28 08:34:40;;;;;;;4.65;1.65;;;24.00;89.20;;;;;;5018187;28;20196;-71
2023/06/28 08:37:08;;;;;;;4.85;1.70;;;25.00;89.90;;;;;;5008269;28;20587;-71
2023/06/28 08:39:38;;;;;;;7.18;1.83;;;25.60;88.30;;;;;;5011052;28;20692;-71
2023/06/28 08:42:05;;;;;;;4.75;1.88;;;26.60;86.90;;;;;;5016046;28;20189;-71
2023/06/28 08:44:33;;;;;;;3.97;1.75;;;25.90;83.00;;;;;;5009248;28;20440;-72
2023/06/28 08:47:02;;;;;;;4.43;1.55;;;26.10;84.50;;;;;;5009934;28;20600;-72
2023/06/28 08:49:32;;;;;;;3.25;1.98;;;26.70;83.50;;;;;;5025616;28;20196;-72
2023/06/28 08:51:59;;;;;;;5.80;2.17;;;27.60;81.60;;;;;;5016654;28;20291;-71
2023/06/28 08:54:30;;;;;;;7.68;2.38;;;29.90;84.00;;;;;;5010645;28;20234;-70
2023/06/28 08:56:58;;;;;;;5.35;2.25;;;28.90;74.80;;;;;;5014382;28;20240;-71
2023/06/28 08:59:38;;;;;;;5.22;2.17;;;29.70;75.50;;;;;;5011232;28;20276;-71
2023/06/28 09:02:08;;;;;;;4.65;2.25;;;28.20;67.70;;;;;;5008976;28;20266;-72
2023/06/28 09:04:36;;;;;;;4.75;2.03;;;27.40;73.70;;;;;;4999681;28;20240;-71
2023/06/28 09:07:04;;;;;;;6.28;2.28;;;29.40;74.40;;;;;;5005593;28;20267;-71
2023/06/28 09:09:32;;;;;;;3.65;2.47;;;30.40;70.40;;;;;;5007021;28;20208;-72
2023/06/28 09:12:02;;;;;;;5.10;2.63;;;29.50;66.90;;;;;;5007433;28;20270;-66
2023/06/28 09:14:30;;;;;;;6.40;2.90;;;28.40;67.10;;;;;;4983737;28;20268;-71
2023/06/28 09:16:57;;;;;;;5.90;2.90;;;27.80;69.40;;;;;;4984866;28;20280;-71
2023/06/28 09:19:24;;;;;;;3.47;2.17;;;29.30;67.50;;;;;;5000809;28;20207;-72
2023/06/28 09:21:51;;;;;;;5.85;2.70;;;28.20;63.90;;;;;;4998333;28;21692;-73
2023/06/28 09:24:24;;;;;;;4.95;2.70;;;29.50;64.70;;;;;;5000699;28;20343;-71
2023/06/28 09:26:51;;;;;;;5.43;2.55;;;28.50;62.20;;;;;;5009196;28;20205;-72
2023/06/28 09:29:18;;;;;;;3.38;2.20;;;28.10;64.80;;;;;;5005563;28;20228;-72
2023/06/28 09:31:47;;;;;;;5.65;2.30;;;29.60;63.50;;;;;;5012387;28;20232;-62
2023/06/28 09:34:22;;;;;;;4.47;2.30;;;29.40;59.70;;;;;;5013598;28;20216;-72
2023/06/28 09:36:56;;;;;;;6.68;2.30;;;29.00;60.10;;;;;;4995488;28;20876;-72
2023/06/28 09:39:24;;;;;;;5.65;2.00;;;28.60;59.50;;;;;;5016249;28;20267;-71
2023/06/28 09:41:53;;;;;;;3.53;1.88;;;29.10;60.80;;;;;;5002793;28;20953;-71
2023/06/28 09:44:28;;;;;;;3.85;2.00;;;30.40;57.90;;;;;;5003767;28;20597;-71
2023/06/28 09:47:03;;;;;;;5.95;2.00;;;29.00;56.10;;;;;;5007127;28;20193;-71
2023/06/28 09:49:31;;;;;;;6.60;2.38;;;28.90;54.00;;;;;;5007030;28;20188;-71
2023/06/28 09:52:05;;;;;;;5.72;1.75;;;27.40;52.30;;;;;;5006354;28;20665;-71
2023/06/28 09:54:45;;;;;;;5.82;1.92;;;28.50;57.10;;;;;;5006066;28;20726;-71
2023/06/28 09:57:13;;;;;;;3.03;1.70;;;28.40;57.40;;;;;;4995886;28;20239;-71
2023/06/28 09:59:41;;;;;;;3.17;1.88;;;29.00;55.30;;;;;;5005192;28;20344;-71
2023/06/28 10:02:09;;;;;;;4.82;1.80;;;28.70;56.40;;;;;;4984138;28;20204;-71
2023/06/28 10:04:38;;;;;;;6.00;1.70;;;30.10;57.00;;;;;;5002907;28;20681;-71
2023/06/28 10:07:06;;;;;;;3.70;1.45;;;31.60;52.60;;;;;;5000670;28;20688;-71
2023/06/28 10:09:37;;;;;;;5.18;1.80;;;32.70;49.80;;;;;;4985587;28;20266;-72
2023/06/28 10:12:12;;;;;;;3.17;1.55;;;33.60;49.60;;;;;;5000133;28;20223;-71
2023/06/28 10:14:44;;;;;;;5.38;1.50;;;32.80;70.50;;;;;;5001636;28;20200;-71
2023/06/28 10:17:12;;;;;;;2.90;1.50;;;30.00;45.90;;;;;;5002046;28;20654;-73
2023/06/28 10:19:39;;;;;;;4.30;2.00;;;27.50;42.10;;;;;;5000350;28;20188;-71
2023/06/28 10:22:07;;;;;;;4.03;1.60;;;26.10;48.90;;;;;;5002759;28;20207;-71
2023/06/28 10:24:36;;;;;;;4.05;1.88;;;26.40;50.00;;;;;;4997282;28;20192;-71
2023/06/28 10:27:04;;;;;;;8.02;1.85;;;27.80;52.60;;;;;;5001232;28;20251;-71
2023/06/28 10:29:31;;;;;;;3.47;1.50;;;28.90;50.70;;;;;;5000627;28;20813;-73
2023/06/28 10:31:59;;;;;;;4.07;1.88;;;28.30;48.80;;;;;;4995836;28;20287;-72
2023/06/28 10:34:27;;;;;;;6.43;1.50;;;28.10;51.60;;;;;;5003205;28;20205;-71
2023/06/28 10:36:56;;;;;;;3.50;1.58;;;28.10;50.60;;;;;;5003518;28;20204;-71
2023/06/28 10:39:23;;;;;;;2.63;1.48;;;27.70;50.40;;;;;;5003798;28;20197;-71
2023/06/28 10:41:57;;;;;;;3.97;1.65;;;28.00;50.80;;;;;;4993382;28;20194;-70
2023/06/28 10:44:24;;;;;;;3.47;1.45;;;26.90;50.00;;;;;;5003075;28;20703;-71
2023/06/28 10:47:17;;;;;;;5.45;1.70;;;27.10;52.80;;;;;;5004947;28;20275;-71
2023/06/28 10:50:09;;;;;;;6.15;3.05;;;29.80;50.20;;;;;;5002616;28;20204;-72
2023/06/28 10:52:48;;;;;;;4.80;2.88;;;29.50;49.60;;;;;;4998863;28;20656;-72
2023/06/28 10:56:02;;;;;;;3.50;1.73;;;30.10;47.90;;;;;;4992975;28;20204;-70
2023/06/28 10:58:42;;;;;;;3.92;1.92;;;28.40;46.00;;;;;;4991632;28;20212;-72
2023/06/28 11:01:30;;;;;;;4.13;2.08;;;28.00;48.30;;;;;;4996119;28;20267;-71
2023/06/28 11:04:11;;;;;;;4.22;2.30;;;28.00;50.10;;;;;;5003676;28;20328;-71
2023/06/28 11:06:39;;;;;;;4.10;1.58;;;27.60;48.10;;;;;;5003280;28;20504;-71
2023/06/28 11:09:19;;;;;;;2.30;1.55;;;26.80;47.20;;;;;;5001979;28;20196;-73
2023/06/28 11:11:54;;;;;;;3.05;1.80;;;27.20;49.40;;;;;;5002284;28;20212;-72
2023/06/28 11:14:23;;;;;;;1.67;1.35;;;25.80;47.60;;;;;;5000853;28;20298;-72
2023/06/28 11:16:51;;;;;;;2.70;1.45;;;25.30;48.40;;;;;;5002521;28;20775;-71
2023/06/28 11:19:22;;;;;;;4.53;1.40;;;25.60;50.30;;;;;;5005643;28;20696;-71
2023/06/28 11:22:00;;;;;;;7.63;1.98;;;26.70;51.10;;;;;;5003408;28;20200;-71
2023/06/28 11:24:33;;;;;;;3.75;1.50;;;27.10;50.10;;;;;;4996574;28;20684;-71
2023/06/28 11:27:10;;;;;;;6.70;1.50;;;27.20;50.90;;;;;;4993559;28;20255;-71
2023/06/28 11:30:03;;;;;;;9.18;1.83;;;28.40;50.70;;;;;;5010766;28;20390;-71
2023/06/28 11:32:32;;;;;;;6.38;1.98;;;28.50;47.50;;;;;;5017036;28;20227;-71
2023/06/28 11:35:00;;;;;;;2.92;1.70;;;27.70;49.70;;;;;;5003917;28;20209;-61
2023/06/28 11:37:30;;;;;;;2.45;1.38;;;29.30;49.30;;;;;;4998122;28;20278;-61
2023/06/28 11:40:00;;;;;;;2.72;1.33;;;29.40;47.40;;;;;;5007013;28;20204;-60
2023/06/28 11:42:27;;;;;;;2.00;1.10;;;29.00;46.60;;;;;;5002131;28;20208;-61
2023/06/28 11:44:54;;;;;;;2.63;1.33;;;29.20;48.90;;;;;;4999285;28;20201;-61
2023/06/28 11:47:22;;;;;;;3.75;1.63;;;28.40;47.40;;;;;;5009741;28;20211;-61
2023/06/28 11:49:54;;;;;;;1.90;1.40;;;28.90;47.80;;;;;;5006685;28;20251;-63
2023/06/28 11:52:21;;;;;;;6.32;1.60;;;29.10;48.70;;;;;;5002107;28;20208;-60
2023/06/28 11:54:48;;;;;;;4.28;1.75;;;29.40;47.20;;;;;;5005305;28;20692;-60
2023/06/28 11:57:16;;;;;;;2.03;1.35;;;29.40;46.10;;;;;;5001395;28;20193;-60
2023/06/28 11:59:50;;;;;;;2.30;1.20;;;29.50;46.00;;;;;;5010875;28;20215;-62
2023/06/28 12:02:17;;;;;;;4.63;1.52;;;29.70;46.80;;;;;;5023052;28;20512;-61
2023/06/28 12:04:57;;;;;;;2.60;1.55;;;28.70;44.70;;;;;;5007708;28;20233;-62
2023/06/28 12:07:25;;;;;;;3.03;1.63;;;28.60;45.80;;;;;;5014877;28;20484;-62
2023/06/28 12:09:56;;;;;;;3.20;1.65;;;30.00;45.30;;;;;;4992652;28;20236;-61
2023/06/28 12:12:34;;;;;;;2.38;1.52;;;29.40;44.00;;;;;;4999631;28;20251;-62
2023/06/28 12:15:02;;;;;;;3.13;1.30;;;29.20;43.60;;;;;;5005647;28;20234;-61
2023/06/28 12:17:44;;;;;;;2.78;1.40;;;29.70;43.80;;;;;;5008161;28;20192;-61
2023/06/28 12:20:12;;;;;;;2.38;1.38;;;29.50;43.50;;;;;;5008555;28;20192;-62
2023/06/28 12:22:46;;;;;;;1.40;1.30;;;28.80;43.80;;;;;;5002946;28;20192;-62
2023/06/28 12:25:13;;;;;;;1.85;1.35;;;28.90;45.30;;;;;;5006724;28;20189;-63
2023/06/28 12:27:41;;;;;;;4.38;1.92;;;27.90;46.70;;;;;;5003798;28;20225;-60
2023/06/28 12:30:09;;;;;;;3.58;1.50;;;28.40;46.40;;;;;;5008261;28;20669;-62
2023/06/28 12:32:42;;;;;;;2.60;1.40;;;27.40;47.00;;;;;;5012673;28;20271;-62
2023/06/28 12:35:23;;;;;;;4.30;1.65;;;28.10;47.50;;;;;;5007496;28;20787;-61
2023/06/28 12:37:58;;;;;;;2.80;1.58;;;28.60;46.10;;;;;;5007272;28;20188;-64
2023/06/28 12:40:33;;;;;;;5.15;2.08;;;29.00;44.80;;;;;;5017531;28;20192;-61
2023/06/28 12:43:14;;;;;;;7.85;2.53;;;26.40;44.30;;;;;;5009442;28;20259;-62
2023/06/28 12:45:46;;;;;;;6.22;2.17;;;26.90;48.30;;;;;;5005429;28;20208;-63
2023/06/28 12:48:16;;;;;;;7.13;1.73;;;27.00;48.00;;;;;;5013229;28;20200;-61
2023/06/28 12:50:47;;;;;;;5.97;2.00;;;27.20;49.30;;;;;;5021477;28;20211;-61
2023/06/28 12:53:14;;;;;;;4.97;2.00;;;26.90;48.80;;;;;;5016083;28;20718;-62
2023/06/28 12:55:41;;;;;;;6.57;2.35;;;27.10;49.70;;;;;;5010809;28;20227;-62